Weather at Fertilizer Colony Helipad

Public forecast

Using degrees Celsius for public forecast. Weather courtesy of forecast.io.

Closest aviation weather report (METAR) to Fertilizer Colony Helipad

Report is more than 6 hours old.

Closest report is Gorakhpur Airport, 6.4 nm (11.9 km) SE.

2024/05/18 01:30 (retrieved 22 hours ago)

VEGK 180130Z VRB01KT 4000 HZ FEW100 SCT250 31/25 Q1004 NOSIG

Closest aviation forecast (TAF) to Fertilizer Colony Helipad

Forecast is more than 6 hours old.

Closest forecast is Gorakhpur Airport, 6.4 nm (11.9 km) SE.

2024/05/18 12:00 (retrieved 11 hours ago)

TAF VEGK 180930Z 1812/1824 27010KT 6000 SCT020 BKN200 BECMG 1822/1824 VRB02KT 4000 HZ SCT015 SCT090